createdAt,value
2023-01-25T00:00:42.321Z,1024.10
2023-01-25T00:01:42.297Z,1024.08
2023-01-25T00:02:42.275Z,1024.05
2023-01-25T00:03:42.259Z,1024.07
2023-01-25T00:04:42.231Z,1024.05
2023-01-25T00:05:42.226Z,1024.04
2023-01-25T00:06:42.188Z,1023.98
2023-01-25T00:07:42.217Z,1024.00
2023-01-25T00:08:42.148Z,1023.94
2023-01-25T00:09:42.122Z,1023.93
2023-01-25T00:10:42.105Z,1023.95
2023-01-25T00:11:42.080Z,1023.95
2023-01-25T00:12:42.088Z,1023.94
2023-01-25T00:13:42.064Z,1023.94
2023-01-25T00:14:42.016Z,1023.90
2023-01-25T00:15:41.990Z,1023.89
2023-01-25T00:16:42.039Z,1023.91
2023-01-25T00:17:41.948Z,1023.85
2023-01-25T00:18:41.963Z,1023.84
2023-01-25T00:19:41.903Z,1023.80
2023-01-25T00:20:41.882Z,1023.78
2023-01-25T00:21:41.857Z,1023.79
2023-01-25T00:22:41.838Z,1023.72
2023-01-25T00:23:41.844Z,1023.70
2023-01-25T00:24:41.814Z,1023.68
2023-01-25T00:25:41.849Z,1023.68
2023-01-25T00:26:41.750Z,1023.69
2023-01-25T00:27:41.734Z,1023.65
2023-01-25T00:28:41.736Z,1023.63
2023-01-25T00:29:41.689Z,1023.62
2023-01-25T00:30:41.672Z,1023.62
2023-01-25T00:31:41.803Z,1023.60
2023-01-25T00:32:41.697Z,1023.59
2023-01-25T00:33:41.606Z,1023.54
2023-01-25T00:34:41.574Z,1023.55
2023-01-25T00:35:41.553Z,1023.52
2023-01-25T00:36:41.528Z,1023.51
2023-01-25T00:37:41.515Z,1023.52
2023-01-25T00:38:41.487Z,1023.48
2023-01-25T00:39:41.465Z,1023.51
2023-01-25T00:40:41.447Z,1023.46
2023-01-25T00:41:41.447Z,1023.51
2023-01-25T00:42:41.411Z,1023.51
2023-01-25T00:43:41.396Z,1023.54
2023-01-25T00:44:41.372Z,1023.48
2023-01-25T00:45:41.358Z,1023.53
2023-01-25T00:46:41.369Z,1023.52
2023-01-25T00:47:41.292Z,1023.55
2023-01-25T00:48:41.270Z,1023.56
2023-01-25T00:49:41.264Z,1023.49
2023-01-25T00:50:41.236Z,1023.53
2023-01-25T00:51:41.229Z,1023.55
2023-01-25T00:52:41.218Z,1023.51
2023-01-25T00:53:41.157Z,1023.49
2023-01-25T00:54:41.148Z,1023.51
2023-01-25T00:55:41.129Z,1023.45
2023-01-25T00:56:41.164Z,1023.49
2023-01-25T00:57:41.075Z,1023.46
2023-01-25T00:58:41.054Z,1023.47
2023-01-25T00:59:41.032Z,1023.45
2023-01-25T01:00:41.008Z,1023.48
2023-01-25T01:01:40.984Z,1023.48
2023-01-25T01:02:41.029Z,1023.49
2023-01-25T01:03:40.944Z,1023.44
2023-01-25T01:04:41.029Z,1023.44
2023-01-25T01:05:40.900Z,1023.51
2023-01-25T01:06:40.876Z,1023.50
2023-01-25T01:07:40.854Z,1023.50
2023-01-25T01:08:40.859Z,1023.51
2023-01-25T01:09:40.817Z,1023.52
2023-01-25T01:10:40.787Z,1023.48
2023-01-25T01:11:40.768Z,1023.50
2023-01-25T01:12:40.742Z,1023.53
2023-01-25T01:13:40.812Z,1023.48
2023-01-25T01:14:40.733Z,1023.50
2023-01-25T01:15:40.680Z,1023.45
2023-01-25T01:16:40.745Z,1023.44
2023-01-25T01:17:40.641Z,1023.39
2023-01-25T01:18:40.611Z,1023.41
2023-01-25T01:19:40.600Z,1023.43
2023-01-25T01:20:40.594Z,1023.39
2023-01-25T01:21:40.553Z,1023.40
2023-01-25T01:22:40.525Z,1023.44
2023-01-25T01:23:40.516Z,1023.44
2023-01-25T01:24:40.521Z,1023.43
2023-01-25T01:25:40.463Z,1023.45
2023-01-25T01:26:40.439Z,1023.46
2023-01-25T01:27:40.417Z,1023.47
2023-01-25T01:28:40.417Z,1023.48
2023-01-25T01:29:40.381Z,1023.45
2023-01-25T01:30:40.370Z,1023.43
2023-01-25T01:31:40.409Z,1023.45
2023-01-25T01:32:40.419Z,1023.44
2023-01-25T01:33:40.317Z,1023.44
2023-01-25T01:34:40.275Z,1023.42
2023-01-25T01:35:40.241Z,1023.40
2023-01-25T01:36:40.229Z,1023.41
2023-01-25T01:37:40.197Z,1023.39
2023-01-25T01:38:40.176Z,1023.40
2023-01-25T01:39:40.196Z,1023.38
2023-01-25T01:40:40.132Z,1023.42
2023-01-25T01:41:40.167Z,1023.40
2023-01-25T01:42:40.089Z,1023.40
2023-01-25T01:43:40.066Z,1023.41
2023-01-25T01:44:40.049Z,1023.44
2023-01-25T01:45:40.053Z,1023.38
2023-01-25T01:46:40.006Z,1023.39
2023-01-25T01:47:40.010Z,1023.40
2023-01-25T01:48:39.996Z,1023.46
2023-01-25T01:49:39.965Z,1023.42
2023-01-25T01:50:39.922Z,1023.38
2023-01-25T01:51:39.905Z,1023.39
2023-01-25T01:52:39.872Z,1023.42
2023-01-25T01:53:39.911Z,1023.41
2023-01-25T01:54:39.829Z,1023.39
2023-01-25T01:55:39.807Z,1023.41
2023-01-25T01:56:39.836Z,1023.41
2023-01-25T01:57:39.762Z,1023.43
2023-01-25T01:58:39.743Z,1023.44
2023-01-25T01:59:39.751Z,1023.40
2023-01-25T02:00:39.724Z,1023.40
2023-01-25T02:01:39.806Z,1023.36
2023-01-25T02:02:39.720Z,1023.42
2023-01-25T02:03:39.637Z,1023.37
2023-01-25T02:04:39.647Z,1023.32
2023-01-25T02:05:39.588Z,1023.31
2023-01-25T02:06:39.565Z,1023.29
2023-01-25T02:07:39.557Z,1023.29
2023-01-25T02:08:39.519Z,1023.31
2023-01-25T02:09:39.531Z,1023.30
2023-01-25T02:10:39.557Z,1023.32
2023-01-25T02:11:39.456Z,1023.31
2023-01-25T02:12:39.434Z,1023.37
2023-01-25T02:13:39.414Z,1023.33
2023-01-25T02:14:39.450Z,1023.37
2023-01-25T02:15:39.445Z,1023.36
2023-01-25T02:16:39.363Z,1023.28
2023-01-25T02:17:39.330Z,1023.31
2023-01-25T02:18:39.301Z,1023.31
2023-01-25T02:19:39.288Z,1023.28
2023-01-25T02:20:39.313Z,1023.26
2023-01-25T02:21:39.245Z,1023.24
2023-01-25T02:22:39.217Z,1023.24
2023-01-25T02:23:39.194Z,1023.22
2023-01-25T02:24:39.172Z,1023.27
2023-01-25T02:25:39.151Z,1023.30
2023-01-25T02:26:39.131Z,1023.25
2023-01-25T02:27:39.120Z,1023.28
2023-01-25T02:28:39.093Z,1023.25
2023-01-25T02:29:39.072Z,1023.23
2023-01-25T02:30:39.071Z,1023.22
2023-01-25T02:31:39.180Z,1023.24
2023-01-25T02:32:39.140Z,1023.18
2023-01-25T02:33:38.980Z,1023.20
2023-01-25T02:34:38.956Z,1023.19
2023-01-25T02:35:38.935Z,1023.14
2023-01-25T02:36:38.912Z,1023.14
2023-01-25T02:37:38.900Z,1023.12
2023-01-25T02:38:38.917Z,1023.14
2023-01-25T02:39:38.845Z,1023.13
2023-01-25T02:40:38.825Z,1023.12
2023-01-25T02:41:38.827Z,1023.08
2023-01-25T02:42:38.781Z,1022.98
2023-01-25T02:43:38.758Z,1023.03
2023-01-25T02:44:38.737Z,1023.02
2023-01-25T02:45:38.715Z,1022.97
2023-01-25T02:46:38.709Z,1022.95
2023-01-25T02:47:38.674Z,1022.96
2023-01-25T02:48:38.656Z,1022.92
2023-01-25T02:49:38.659Z,1022.92
2023-01-25T02:50:38.604Z,1022.91
2023-01-25T02:51:38.586Z,1022.89
2023-01-25T02:52:38.562Z,1022.87
2023-01-25T02:53:38.544Z,1022.81
2023-01-25T02:54:38.518Z,1022.83
2023-01-25T02:55:38.541Z,1022.83
2023-01-25T02:56:38.474Z,1022.82
2023-01-25T02:57:38.488Z,1022.81
2023-01-25T02:58:38.431Z,1022.77
2023-01-25T02:59:38.435Z,1022.75
2023-01-25T03:00:38.392Z,1022.77
2023-01-25T03:01:38.458Z,1022.80
2023-01-25T03:02:38.421Z,1022.76
2023-01-25T03:03:38.354Z,1022.76
2023-01-25T03:04:38.353Z,1022.81
2023-01-25T03:05:38.279Z,1022.77
2023-01-25T03:06:38.266Z,1022.83
2023-01-25T03:07:38.234Z,1022.74
2023-01-25T03:08:38.213Z,1022.77
2023-01-25T03:09:38.190Z,1022.85
2023-01-25T03:10:38.193Z,1022.79
2023-01-25T03:11:38.162Z,1022.81
2023-01-25T03:12:38.135Z,1022.78
2023-01-25T03:13:38.106Z,1022.77
2023-01-25T03:14:38.134Z,1022.74
2023-01-25T03:15:38.060Z,1022.67
2023-01-25T03:16:38.105Z,1022.71
2023-01-25T03:17:38.021Z,1022.65
2023-01-25T03:18:37.992Z,1022.66
2023-01-25T03:19:37.972Z,1022.64
2023-01-25T03:20:37.995Z,1022.58
2023-01-25T03:21:37.929Z,1022.56
2023-01-25T03:22:37.905Z,1022.52
2023-01-25T03:23:37.881Z,1022.55
2023-01-25T03:24:37.871Z,1022.50
2023-01-25T03:25:37.844Z,1022.50
2023-01-25T03:26:37.826Z,1022.47
2023-01-25T03:27:37.803Z,1022.45
2023-01-25T03:28:37.795Z,1022.43
2023-01-25T03:29:37.784Z,1022.40
2023-01-25T03:30:37.738Z,1022.33
2023-01-25T03:31:37.824Z,1022.35
2023-01-25T03:32:37.686Z,1022.35
2023-01-25T03:33:37.665Z,1022.28
2023-01-25T03:34:37.701Z,1022.28
2023-01-25T03:35:37.627Z,1022.26
2023-01-25T03:36:37.597Z,1022.24
2023-01-25T03:37:37.577Z,1022.21
2023-01-25T03:38:37.559Z,1022.19
2023-01-25T03:39:37.535Z,1022.20
2023-01-25T03:40:37.566Z,1022.21
2023-01-25T03:41:37.490Z,1022.20
2023-01-25T03:42:37.476Z,1022.17
2023-01-25T03:43:37.444Z,1022.16
2023-01-25T03:44:37.426Z,1022.18
2023-01-25T03:45:37.404Z,1022.16
2023-01-25T03:46:37.434Z,1022.15
2023-01-25T03:47:37.374Z,1022.15
2023-01-25T03:48:37.337Z,1022.17
2023-01-25T03:49:37.312Z,1022.15
2023-01-25T03:50:37.298Z,1022.13
2023-01-25T03:51:37.320Z,1022.16
2023-01-25T03:52:37.257Z,1022.13
2023-01-25T03:53:37.231Z,1022.11
2023-01-25T03:54:37.203Z,1022.10
2023-01-25T03:55:37.182Z,1022.10
2023-01-25T03:56:37.167Z,1022.09
2023-01-25T03:57:37.170Z,1022.12
2023-01-25T03:58:37.118Z,1022.10
2023-01-25T03:59:37.100Z,1022.10
2023-01-25T04:00:37.108Z,1022.09
2023-01-25T04:01:37.056Z,1022.07
2023-01-25T04:02:37.137Z,1022.13
2023-01-25T04:03:37.017Z,1022.03
2023-01-25T04:04:36.989Z,1022.01
2023-01-25T04:05:36.971Z,1022.02
2023-01-25T04:06:36.946Z,1022.05
2023-01-25T04:07:36.935Z,1022.03
2023-01-25T04:08:36.905Z,1022.03
2023-01-25T04:09:36.881Z,1022.07
2023-01-25T04:10:36.858Z,1022.08
2023-01-25T04:11:36.834Z,1022.07
2023-01-25T04:12:36.821Z,1021.97
2023-01-25T04:13:36.849Z,1021.99
2023-01-25T04:14:44.419Z,1021.97
2023-01-25T04:15:36.761Z,1021.93
2023-01-25T04:16:36.744Z,1021.93
2023-01-25T04:17:36.703Z,1021.92
2023-01-25T04:18:36.689Z,1021.90
2023-01-25T04:19:36.685Z,1021.93
2023-01-25T04:20:36.648Z,1021.92
2023-01-25T04:21:36.638Z,1021.86
2023-01-25T04:22:36.602Z,1021.88
2023-01-25T04:23:36.572Z,1021.88
2023-01-25T04:24:36.558Z,1021.84
2023-01-25T04:25:36.528Z,1021.81
2023-01-25T04:26:36.533Z,1021.84
2023-01-25T04:27:36.487Z,1021.83
2023-01-25T04:28:36.463Z,1021.81
2023-01-25T04:29:41.427Z,1021.84
2023-01-25T04:30:36.420Z,1021.85
2023-01-25T04:31:36.505Z,1021.84
2023-01-25T04:32:36.505Z,1021.87
2023-01-25T04:33:36.352Z,1021.85
2023-01-25T04:34:36.336Z,1021.91
2023-01-25T04:35:36.319Z,1021.89
2023-01-25T04:36:36.312Z,1021.89
2023-01-25T04:37:36.311Z,1021.95
2023-01-25T04:38:36.252Z,1021.88
2023-01-25T04:39:36.237Z,1021.85
2023-01-25T04:40:36.202Z,1021.90
2023-01-25T04:41:36.199Z,1021.93
2023-01-25T04:42:36.177Z,1021.94
2023-01-25T04:43:36.145Z,1021.91
2023-01-25T04:44:36.131Z,1021.91
2023-01-25T04:45:36.149Z,1021.97
2023-01-25T04:46:36.078Z,1021.88
2023-01-25T04:47:36.045Z,1021.92
2023-01-25T04:48:36.063Z,1021.94
2023-01-25T04:49:36.003Z,1021.93
2023-01-25T04:50:35.983Z,1021.92
2023-01-25T04:51:35.958Z,1021.92
2023-01-25T04:52:35.946Z,1021.93
2023-01-25T04:53:35.957Z,1021.96
2023-01-25T04:54:35.902Z,1021.94
2023-01-25T04:55:35.875Z,1021.92
2023-01-25T04:56:35.854Z,1021.92
2023-01-25T04:57:35.867Z,1021.93
2023-01-25T04:58:35.848Z,1021.83
2023-01-25T04:59:35.794Z,1021.84
2023-01-25T05:00:35.784Z,1021.87
2023-01-25T05:01:35.826Z,1021.86
2023-01-25T05:02:35.759Z,1021.88
2023-01-25T05:03:35.707Z,1021.81
2023-01-25T05:04:35.678Z,1021.78
2023-01-25T05:05:35.701Z,1021.83
2023-01-25T05:06:35.636Z,1021.82
2023-01-25T05:07:35.625Z,1021.84
2023-01-25T05:08:35.588Z,1021.78
2023-01-25T05:09:35.567Z,1021.82
2023-01-25T05:10:35.557Z,1021.80
2023-01-25T05:11:35.557Z,1021.81
2023-01-25T05:12:35.504Z,1021.79
2023-01-25T05:13:35.503Z,1021.76
2023-01-25T05:14:35.457Z,1021.77
2023-01-25T05:15:35.433Z,1021.73
2023-01-25T05:16:35.458Z,1021.73
2023-01-25T05:17:35.389Z,1021.75
2023-01-25T05:18:47.490Z,1021.73
2023-01-25T05:19:35.348Z,1021.73
2023-01-25T05:20:35.324Z,1021.74
2023-01-25T05:21:35.324Z,1021.72
2023-01-25T05:22:35.286Z,1021.69
2023-01-25T05:23:35.262Z,1021.75
2023-01-25T05:24:35.242Z,1021.72
2023-01-25T05:25:35.222Z,1021.70
2023-01-25T05:26:35.194Z,1021.75
2023-01-25T05:27:35.176Z,1021.73
2023-01-25T05:28:35.148Z,1021.74
2023-01-25T05:29:35.134Z,1021.70
2023-01-25T05:30:35.129Z,1021.70
2023-01-25T05:31:35.111Z,1021.72
2023-01-25T05:32:35.091Z,1021.71
2023-01-25T05:33:35.045Z,1021.67
2023-01-25T05:34:35.056Z,1021.70
2023-01-25T05:35:35.000Z,1021.65
2023-01-25T05:36:34.976Z,1021.71
2023-01-25T05:37:34.953Z,1021.68
2023-01-25T05:38:34.938Z,1021.67
2023-01-25T05:39:34.933Z,1021.66
2023-01-25T05:40:34.889Z,1021.68
2023-01-25T05:41:34.879Z,1021.68
2023-01-25T05:42:34.870Z,1021.64
2023-01-25T05:43:34.839Z,1021.66
2023-01-25T05:44:34.801Z,1021.67
2023-01-25T05:45:34.779Z,1021.63
2023-01-25T05:46:34.757Z,1021.66
2023-01-25T05:47:34.739Z,1021.70
2023-01-25T05:48:34.712Z,1021.61
2023-01-25T05:49:34.690Z,1021.63
2023-01-25T05:50:34.695Z,1021.59
2023-01-25T05:51:34.695Z,1021.59
2023-01-25T05:52:34.623Z,1021.64
2023-01-25T05:53:34.602Z,1021.60
2023-01-25T05:54:34.595Z,1021.58
2023-01-25T05:55:34.608Z,1021.61
2023-01-25T05:56:34.536Z,1021.64
2023-01-25T05:57:34.513Z,1021.61
2023-01-25T05:58:34.490Z,1021.63
2023-01-25T05:59:34.472Z,1021.59
2023-01-25T06:00:34.461Z,1021.62
2023-01-25T06:01:34.436Z,1021.62
2023-01-25T06:02:34.503Z,1021.66
2023-01-25T06:03:34.554Z,1021.66
2023-01-25T06:04:34.354Z,1021.62
2023-01-25T06:05:34.340Z,1021.63
2023-01-25T06:06:34.366Z,1021.64
2023-01-25T06:07:34.294Z,1021.59
2023-01-25T06:08:34.267Z,1021.64
2023-01-25T06:09:34.252Z,1021.63
2023-01-25T06:10:34.225Z,1021.60
2023-01-25T06:11:34.209Z,1021.63
2023-01-25T06:12:34.216Z,1021.60
2023-01-25T06:13:34.167Z,1021.61
2023-01-25T06:14:34.165Z,1021.60
2023-01-25T06:15:34.152Z,1021.65
2023-01-25T06:16:34.087Z,1021.61
2023-01-25T06:17:34.069Z,1021.60
2023-01-25T06:18:34.048Z,1021.61
2023-01-25T06:19:34.058Z,1021.60
2023-01-25T06:20:34.028Z,1021.58
2023-01-25T06:21:34.095Z,1021.60
2023-01-25T06:22:33.960Z,1021.62
2023-01-25T06:23:33.946Z,1021.63
2023-01-25T06:24:33.965Z,1021.63
2023-01-25T06:25:33.918Z,1021.59
2023-01-25T06:26:33.886Z,1021.61
2023-01-25T06:27:33.850Z,1021.59
2023-01-25T06:28:33.822Z,1021.59
2023-01-25T06:29:33.800Z,1021.58
2023-01-25T06:30:33.806Z,1021.58
2023-01-25T06:31:33.970Z,1021.62
2023-01-25T06:32:33.935Z,1021.63
2023-01-25T06:33:33.717Z,1021.64
2023-01-25T06:34:33.688Z,1021.61
2023-01-25T06:35:33.733Z,1021.64
2023-01-25T06:36:33.643Z,1021.61
2023-01-25T06:37:33.623Z,1021.56
2023-01-25T06:38:33.602Z,1021.60
2023-01-25T06:39:33.578Z,1021.67
2023-01-25T06:40:33.606Z,1021.59
2023-01-25T06:41:33.540Z,1021.62
2023-01-25T06:42:33.516Z,1021.61
2023-01-25T06:43:33.491Z,1021.64
2023-01-25T06:44:33.461Z,1021.63
2023-01-25T06:45:33.454Z,1021.63
2023-01-25T06:46:33.478Z,1021.62
2023-01-25T06:47:33.431Z,1021.65
2023-01-25T06:48:33.382Z,1021.57
2023-01-25T06:49:33.356Z,1021.58
2023-01-25T06:50:33.336Z,1021.58
2023-01-25T06:51:33.339Z,1021.56
2023-01-25T06:52:33.289Z,1021.58
2023-01-25T06:53:33.277Z,1021.58
2023-01-25T06:54:33.239Z,1021.57
2023-01-25T06:55:33.249Z,1021.60
2023-01-25T06:56:33.205Z,1021.59
2023-01-25T06:57:33.184Z,1021.59
2023-01-25T06:58:33.164Z,1021.57
2023-01-25T06:59:33.161Z,1021.61
2023-01-25T07:00:33.108Z,1021.62
2023-01-25T07:01:33.154Z,1021.60
2023-01-25T07:02:33.106Z,1021.54
2023-01-25T07:03:33.044Z,1021.56
2023-01-25T07:04:33.081Z,1021.59
2023-01-25T07:05:32.999Z,1021.60
2023-01-25T07:06:32.978Z,1021.54
2023-01-25T07:07:32.956Z,1021.57
2023-01-25T07:08:32.927Z,1021.60
2023-01-25T07:09:32.907Z,1021.64
2023-01-25T07:10:33.935Z,1021.66
2023-01-25T07:11:32.867Z,1021.61
2023-01-25T07:12:32.840Z,1021.60
2023-01-25T07:13:32.822Z,1021.59
2023-01-25T07:14:32.797Z,1021.57
2023-01-25T07:15:32.813Z,1021.58
2023-01-25T07:16:32.792Z,1021.54
2023-01-25T07:17:32.731Z,1021.57
2023-01-25T07:18:32.703Z,1021.51
2023-01-25T07:19:32.690Z,1021.50
2023-01-25T07:20:32.668Z,1021.54
2023-01-25T07:21:32.669Z,1021.52
2023-01-25T07:22:32.617Z,1021.49
2023-01-25T07:23:32.598Z,1021.53
2023-01-25T07:24:32.579Z,1021.46
2023-01-25T07:25:32.556Z,1021.51
2023-01-25T07:26:32.573Z,1021.48
2023-01-25T07:27:32.507Z,1021.46
2023-01-25T07:28:32.487Z,1021.45
2023-01-25T07:29:32.461Z,1021.43
2023-01-25T07:30:32.439Z,1021.45
2023-01-25T07:31:32.445Z,1021.39
2023-01-25T07:32:32.392Z,1021.43
2023-01-25T07:33:32.399Z,1021.34
2023-01-25T07:34:32.347Z,1021.38
2023-01-25T07:35:32.335Z,1021.37
2023-01-25T07:36:32.315Z,1021.34
2023-01-25T07:37:32.332Z,1021.34
2023-01-25T07:38:32.266Z,1021.38
2023-01-25T07:39:32.237Z,1021.32
2023-01-25T07:40:32.228Z,1021.29
2023-01-25T07:41:32.221Z,1021.35
2023-01-25T07:42:32.167Z,1021.33
2023-01-25T07:43:32.181Z,1021.36
2023-01-25T07:44:32.126Z,1021.32
2023-01-25T07:45:32.103Z,1021.32
2023-01-25T07:46:32.125Z,1021.32
2023-01-25T07:47:32.063Z,1021.27
2023-01-25T07:48:32.099Z,1021.27
2023-01-25T07:49:32.042Z,1021.27
2023-01-25T07:50:31.994Z,1021.24
2023-01-25T07:51:31.979Z,1021.31
2023-01-25T07:52:31.946Z,1021.29
2023-01-25T07:53:31.943Z,1021.29
2023-01-25T07:54:31.898Z,1021.29
2023-01-25T07:55:31.879Z,1021.22
2023-01-25T07:56:31.863Z,1021.22
2023-01-25T07:57:31.840Z,1021.24
2023-01-25T07:58:31.809Z,1021.26
2023-01-25T07:59:31.796Z,1021.25
2023-01-25T08:00:31.770Z,1021.22
2023-01-25T08:01:31.746Z,1021.26
2023-01-25T08:02:31.718Z,1021.29
2023-01-25T08:03:31.701Z,1021.26
2023-01-25T08:04:31.704Z,1021.24
2023-01-25T08:05:31.656Z,1021.25
2023-01-25T08:06:31.684Z,1021.20
2023-01-25T08:07:31.615Z,1021.24
2023-01-25T08:08:31.591Z,1021.20
2023-01-25T08:09:31.565Z,1021.20
2023-01-25T08:10:31.551Z,1021.20
2023-01-25T08:11:31.531Z,1021.20
2023-01-25T08:12:31.503Z,1021.20
2023-01-25T08:13:31.479Z,1021.19
2023-01-25T08:14:31.456Z,1021.21
2023-01-25T08:15:31.449Z,1021.16
2023-01-25T08:16:31.404Z,1021.16
2023-01-25T08:17:31.502Z,1021.16
2023-01-25T08:18:31.365Z,1021.15
2023-01-25T08:19:31.357Z,1021.13
2023-01-25T08:20:31.323Z,1021.09
2023-01-25T08:21:31.303Z,1021.11
2023-01-25T08:22:31.322Z,1021.05
2023-01-25T08:23:31.253Z,1021.08
2023-01-25T08:24:31.337Z,1021.07
2023-01-25T08:25:31.215Z,1021.04
2023-01-25T08:26:31.191Z,1021.12
2023-01-25T08:27:31.171Z,1021.10
2023-01-25T08:28:31.193Z,1021.09
2023-01-25T08:29:31.128Z,1021.07
2023-01-25T08:30:31.105Z,1021.05
2023-01-25T08:31:31.151Z,1021.03
2023-01-25T08:32:31.053Z,1020.99
2023-01-25T08:33:31.033Z,1020.99
2023-01-25T08:34:31.011Z,1021.05
2023-01-25T08:35:30.987Z,1021.03
2023-01-25T08:36:30.970Z,1021.10
2023-01-25T08:37:30.938Z,1021.03
2023-01-25T08:38:30.918Z,1021.04
2023-01-25T08:39:30.933Z,1021.06
2023-01-25T08:40:30.882Z,1021.05
2023-01-25T08:41:30.856Z,1021.04
2023-01-25T08:42:30.982Z,1021.06
2023-01-25T08:43:30.810Z,1021.05
2023-01-25T08:44:30.815Z,1021.08
2023-01-25T08:45:30.811Z,1021.08
2023-01-25T08:46:32.075Z,1021.05
2023-01-25T08:47:30.767Z,1021.11
2023-01-25T08:48:30.733Z,1021.06
2023-01-25T08:49:30.761Z,1021.03
2023-01-25T08:50:30.678Z,1021.02
2023-01-25T08:51:30.683Z,1021.01
2023-01-25T08:52:30.610Z,1020.97
2023-01-25T08:53:30.588Z,1020.97
2023-01-25T08:54:30.588Z,1020.99
2023-01-25T08:55:30.583Z,1020.96
2023-01-25T08:56:30.517Z,1020.87
2023-01-25T08:57:30.541Z,1020.92
2023-01-25T08:58:30.470Z,1020.90
2023-01-25T08:59:30.461Z,1020.88
2023-01-25T09:00:30.471Z,1020.87
2023-01-25T09:01:30.427Z,1020.87
2023-01-25T09:02:30.393Z,1020.84
2023-01-25T09:03:30.441Z,1020.83
2023-01-25T09:04:30.343Z,1020.81
2023-01-25T09:05:30.318Z,1020.77
2023-01-25T09:06:30.325Z,1020.79
2023-01-25T09:07:30.298Z,1020.78
2023-01-25T09:08:30.248Z,1020.77
2023-01-25T09:09:30.232Z,1020.79
2023-01-25T09:10:30.209Z,1020.71
2023-01-25T09:11:30.216Z,1020.72
2023-01-25T09:12:30.163Z,1020.74
2023-01-25T09:13:30.160Z,1020.70
2023-01-25T09:14:30.119Z,1020.67
2023-01-25T09:15:30.103Z,1020.69
2023-01-25T09:16:30.102Z,1020.66
2023-01-25T09:17:30.078Z,1020.65
2023-01-25T09:18:30.031Z,1020.62
2023-01-25T09:19:30.014Z,1020.62
2023-01-25T09:20:33.128Z,1020.61
2023-01-25T09:21:30.015Z,1020.58
2023-01-25T09:22:30.640Z,1020.64
2023-01-25T09:23:29.981Z,1020.60
2023-01-25T09:24:29.903Z,1020.62
2023-01-25T09:25:29.875Z,1020.61
2023-01-25T09:26:31.439Z,1020.58
2023-01-25T09:27:29.828Z,1020.58
2023-01-25T09:28:29.845Z,1020.60
2023-01-25T09:29:29.801Z,1020.55
2023-01-25T09:30:44.756Z,1020.56
2023-01-25T09:31:30.151Z,1020.59
2023-01-25T09:32:29.888Z,1020.54
2023-01-25T09:33:29.710Z,1020.58
2023-01-25T09:34:29.672Z,1020.52
2023-01-25T09:35:29.685Z,1020.60
2023-01-25T09:36:29.653Z,1020.50
2023-01-25T09:37:29.645Z,1020.61
2023-01-25T09:38:29.655Z,1020.66
2023-01-25T09:39:29.563Z,1020.58
2023-01-25T09:40:29.543Z,1020.57
2023-01-25T09:41:29.541Z,1020.53
2023-01-25T09:42:29.546Z,1020.56
2023-01-25T09:43:29.476Z,1020.48
2023-01-25T09:44:29.460Z,1020.45
2023-01-25T09:45:29.434Z,1020.45
2023-01-25T09:46:29.463Z,1020.43
2023-01-25T09:47:29.460Z,1020.45
2023-01-25T09:48:29.406Z,1020.47
2023-01-25T09:49:29.349Z,1020.49
2023-01-25T09:50:29.349Z,1020.43
2023-01-25T09:51:29.299Z,1020.47
2023-01-25T09:52:29.279Z,1020.47
2023-01-25T09:53:29.319Z,1020.49
2023-01-25T09:54:31.683Z,1020.46
2023-01-25T09:55:29.251Z,1020.43
2023-01-25T09:56:29.207Z,1020.45
2023-01-25T09:57:29.164Z,1020.45
2023-01-25T09:58:29.150Z,1020.44
2023-01-25T09:59:29.153Z,1020.46
2023-01-25T10:00:29.102Z,1020.46
2023-01-25T10:01:38.565Z,1020.47
2023-01-25T10:02:29.206Z,1020.46
2023-01-25T10:03:29.064Z,1020.43
2023-01-25T10:04:29.012Z,1020.43
2023-01-25T10:05:28.995Z,1020.42
2023-01-25T10:06:30.418Z,1020.42
2023-01-25T10:07:28.942Z,1020.38
2023-01-25T10:08:28.954Z,1020.36
2023-01-25T10:09:28.900Z,1020.33
2023-01-25T10:10:28.889Z,1020.32
2023-01-25T10:11:28.933Z,1020.33
2023-01-25T10:12:28.839Z,1020.27
2023-01-25T10:13:28.814Z,1020.27
2023-01-25T10:14:28.793Z,1020.29
2023-01-25T10:15:28.809Z,1020.24
2023-01-25T10:16:29.123Z,1020.24
2023-01-25T10:17:28.778Z,1020.22
2023-01-25T10:18:28.704Z,1020.23
2023-01-25T10:19:28.683Z,1020.21
2023-01-25T10:20:28.663Z,1020.16
2023-01-25T10:21:28.637Z,1020.21
2023-01-25T10:22:29.808Z,1020.18
2023-01-25T10:23:28.609Z,1020.18
2023-01-25T10:24:28.602Z,1020.12
2023-01-25T10:25:28.545Z,1020.15
2023-01-25T10:26:28.521Z,1020.15
2023-01-25T10:27:28.506Z,1020.14
2023-01-25T10:28:30.069Z,1020.12
2023-01-25T10:29:28.454Z,1020.16
2023-01-25T10:30:28.466Z,1020.06
2023-01-25T10:31:28.545Z,1020.09
2023-01-25T10:32:28.395Z,1020.12
2023-01-25T10:33:28.366Z,1020.07
2023-01-25T10:34:28.373Z,1020.09
2023-01-25T10:35:35.365Z,1020.00
2023-01-25T10:36:28.299Z,1020.02
2023-01-25T10:37:28.301Z,1019.97
2023-01-25T10:38:28.264Z,1019.99
2023-01-25T10:39:28.290Z,1019.97
2023-01-25T10:40:28.396Z,1019.97
2023-01-25T10:41:28.187Z,1019.95
2023-01-25T10:42:28.169Z,1019.88
2023-01-25T10:43:28.145Z,1019.88
2023-01-25T10:44:28.121Z,1019.84
2023-01-25T10:45:28.123Z,1019.80
2023-01-25T10:46:28.100Z,1019.83
2023-01-25T10:47:28.054Z,1019.85
2023-01-25T10:48:29.811Z,1019.76
2023-01-25T10:49:28.012Z,1019.79
2023-01-25T10:50:28.060Z,1019.83
2023-01-25T10:51:27.975Z,1019.79
2023-01-25T10:52:27.966Z,1019.84
2023-01-25T10:53:27.984Z,1019.86
2023-01-25T10:54:30.200Z,1019.83
2023-01-25T10:55:27.872Z,1019.81
2023-01-25T10:56:27.882Z,1019.81
2023-01-25T10:57:27.841Z,1019.79
2023-01-25T10:58:27.809Z,1019.74
2023-01-25T10:59:27.782Z,1019.70
2023-01-25T11:00:30.367Z,1019.66
2023-01-25T11:01:27.816Z,1019.61
2023-01-25T11:02:27.823Z,1019.58
2023-01-25T11:03:27.770Z,1019.58
2023-01-25T11:04:27.752Z,1019.52
2023-01-25T11:05:27.731Z,1019.55
2023-01-25T11:06:29.051Z,1019.59
2023-01-25T11:07:27.935Z,1019.57
2023-01-25T11:08:27.684Z,1019.54
2023-01-25T11:09:27.572Z,1019.54
2023-01-25T11:10:27.540Z,1019.58
2023-01-25T11:11:27.575Z,1019.53
2023-01-25T11:12:27.506Z,1019.55
2023-01-25T11:13:27.527Z,1019.47
2023-01-25T11:14:27.466Z,1019.45
2023-01-25T11:15:27.442Z,1019.48
2023-01-25T11:16:27.411Z,1019.53
2023-01-25T11:17:27.416Z,1019.41
2023-01-25T11:18:27.425Z,1019.44
2023-01-25T11:19:27.341Z,1019.46
2023-01-25T11:20:27.350Z,1019.43
2023-01-25T11:21:27.294Z,1019.37
2023-01-25T11:22:27.349Z,1019.34
2023-01-25T11:23:27.258Z,1019.34
2023-01-25T11:24:27.300Z,1019.35
2023-01-25T11:25:27.226Z,1019.36
2023-01-25T11:26:27.181Z,1019.34
2023-01-25T11:27:27.164Z,1019.29
2023-01-25T11:28:27.358Z,1019.25
2023-01-25T11:29:27.164Z,1019.23
2023-01-25T11:30:27.100Z,1019.21
2023-01-25T11:31:27.433Z,1019.15
2023-01-25T11:32:27.054Z,1019.09
2023-01-25T11:33:27.027Z,1019.08
2023-01-25T11:34:27.012Z,1019.02
2023-01-25T11:35:27.050Z,1019.04
2023-01-25T11:36:26.955Z,1018.95
2023-01-25T11:37:26.961Z,1018.93
2023-01-25T11:38:26.912Z,1018.93
2023-01-25T11:39:27.203Z,1018.91
2023-01-25T11:40:26.866Z,1018.93
2023-01-25T11:41:26.851Z,1018.89
2023-01-25T11:42:26.822Z,1018.88
2023-01-25T11:43:26.808Z,1018.84
2023-01-25T11:44:26.776Z,1018.80
2023-01-25T11:45:26.787Z,1018.81
2023-01-25T11:46:26.751Z,1018.76
2023-01-25T11:47:26.711Z,1018.75
2023-01-25T11:48:26.691Z,1018.72
2023-01-25T11:49:26.706Z,1018.74
2023-01-25T11:50:26.663Z,1018.69
2023-01-25T11:51:26.619Z,1018.66
2023-01-25T11:52:26.615Z,1018.69
2023-01-25T11:53:26.594Z,1018.64
2023-01-25T11:54:26.563Z,1018.62
2023-01-25T11:55:26.587Z,1018.60
2023-01-25T11:56:26.508Z,1018.62
2023-01-25T11:57:26.482Z,1018.54
2023-01-25T11:58:26.474Z,1018.54
2023-01-25T11:59:27.160Z,1018.52
2023-01-25T12:00:26.461Z,1018.49
2023-01-25T12:01:26.435Z,1018.46
2023-01-25T12:02:26.414Z,1018.46
2023-01-25T12:03:26.358Z,1018.45
2023-01-25T12:04:26.328Z,1018.45
2023-01-25T12:05:26.303Z,1018.42